Time;durP1;ratioP1;P1;durP2;ratioP2;P2;SDS_P1;SDS_P2;PMS_P1;PMS_P2;Temp;Humidity;BMP_temperature;BMP_pressure;BME280_temperature;BME280_humidity;BME280_pressure;Samples;Min_cycle;Max_cycle;Signal;HPM_P1;HPM_P2
2024/01/09 00:02:03;;;;;;;18.08;6.57;;;-2.10;91.30;;;;;;5077050;28;20020;-74
2024/01/09 00:04:29;;;;;;;15.40;6.38;;;-2.20;90.90;;;;;;5081074;28;20111;-74
2024/01/09 00:06:54;;;;;;;12.63;5.45;;;-2.20;90.70;;;;;;5080601;28;20036;-73
2024/01/09 00:09:20;;;;;;;11.70;5.78;;;-2.20;91.10;;;;;;5074202;28;20056;-73
2024/01/09 00:11:46;;;;;;;14.23;5.50;;;-2.20;91.50;;;;;;5074120;28;20138;-73
2024/01/09 00:14:11;;;;;;;13.68;5.68;;;-2.30;91.60;;;;;;5073626;28;20033;-72
2024/01/09 00:16:37;;;;;;;13.43;5.95;;;-2.30;92.00;;;;;;5073696;28;20403;-72
2024/01/09 00:19:03;;;;;;;13.10;5.43;;;-2.30;91.40;;;;;;5073876;28;20071;-73
2024/01/09 00:21:28;;;;;;;12.95;5.35;;;-2.30;91.40;;;;;;5073630;28;20021;-73
2024/01/09 00:23:54;;;;;;;12.43;6.13;;;-2.30;91.60;;;;;;5074931;28;20041;-73
2024/01/09 00:26:22;;;;;;;12.75;5.63;;;-2.30;91.60;;;;;;5073060;28;20025;-74
2024/01/09 00:28:48;;;;;;;12.60;5.18;;;-2.40;91.90;;;;;;5073875;28;20024;-74
2024/01/09 00:31:14;;;;;;;13.13;5.43;;;-2.40;91.30;;;;;;5073918;28;20032;-74
2024/01/09 00:33:39;;;;;;;15.05;5.55;;;-2.40;92.10;;;;;;5074947;28;20433;-73
2024/01/09 00:36:05;;;;;;;16.75;5.70;;;-2.40;91.60;;;;;;5058681;28;20035;-73
2024/01/09 00:38:31;;;;;;;10.50;5.22;;;-2.40;92.60;;;;;;5072601;28;20054;-74
2024/01/09 00:40:57;;;;;;;14.00;5.57;;;-2.50;93.10;;;;;;5073363;28;20024;-73
2024/01/09 00:43:22;;;;;;;18.30;5.35;;;-2.60;93.80;;;;;;5073278;28;20024;-73
2024/01/09 00:45:48;;;;;;;13.30;4.97;;;-2.70;94.40;;;;;;5073111;28;20052;-72
2024/01/09 00:48:13;;;;;;;10.43;4.80;;;-2.70;96.40;;;;;;5079815;28;20460;-72
2024/01/09 00:50:39;;;;;;;12.90;4.95;;;-2.60;97.60;;;;;;5074555;28;20032;-74
2024/01/09 00:53:04;;;;;;;12.02;5.13;;;-2.70;97.80;;;;;;5072920;28;20436;-74
2024/01/09 00:55:30;;;;;;;11.85;5.00;;;-2.70;98.70;;;;;;5073081;28;20027;-74
2024/01/09 00:57:56;;;;;;;13.75;5.03;;;-2.70;99.10;;;;;;5073012;28;20047;-73
2024/01/09 01:00:21;;;;;;;12.13;4.95;;;-2.70;99.20;;;;;;5072480;28;20495;-74
2024/01/09 01:02:47;;;;;;;15.52;5.53;;;-2.70;99.90;;;;;;5069787;28;20035;-74
2024/01/09 01:05:15;;;;;;;13.05;5.55;;;-2.70;99.90;;;;;;5072552;28;20103;-74
2024/01/09 01:07:40;;;;;;;11.15;5.10;;;-2.80;99.90;;;;;;5073779;28;20107;-74
2024/01/09 01:10:06;;;;;;;14.82;5.32;;;-2.80;99.90;;;;;;5074710;28;20510;-73
2024/01/09 01:12:32;;;;;;;11.95;5.55;;;-2.80;99.90;;;;;;5073931;28;20021;-73
2024/01/09 01:14:57;;;;;;;10.88;5.45;;;-2.80;99.90;;;;;;5073881;28;20062;-73
2024/01/09 01:17:23;;;;;;;15.50;5.03;;;-2.80;99.90;;;;;;5073269;28;20320;-73
2024/01/09 01:19:48;;;;;;;11.32;5.00;;;-2.90;99.90;;;;;;5073141;28;20044;-74
2024/01/09 01:22:14;;;;;;;14.85;5.47;;;-2.80;99.90;;;;;;5071369;28;20048;-74
2024/01/09 01:24:40;;;;;;;19.27;5.72;;;-2.80;99.90;;;;;;5070445;28;20094;-74
2024/01/09 01:27:05;;;;;;;9.13;4.90;;;-2.80;99.90;;;;;;5071932;28;20025;-74
2024/01/09 01:29:31;;;;;;;12.13;5.88;;;-2.80;99.90;;;;;;5070926;28;20020;-73
2024/01/09 01:31:56;;;;;;;14.77;5.47;;;-2.90;99.90;;;;;;5071218;28;20541;-72
2024/01/09 01:34:22;;;;;;;10.57;4.47;;;-2.80;99.90;;;;;;5070567;28;20020;-74
2024/01/09 01:36:47;;;;;;;12.63;5.25;;;-2.90;99.90;;;;;;5071972;28;20048;-74
2024/01/09 01:39:13;;;;;;;11.15;5.30;;;-2.80;99.90;;;;;;5072469;28;20027;-74
2024/01/09 01:41:39;;;;;;;14.57;5.32;;;-2.70;99.90;;;;;;5073229;28;20047;-73
2024/01/09 01:44:16;;;;;;;13.00;5.80;;;-2.90;99.90;;;;;;5092417;28;20017;-74
2024/01/09 01:46:43;;;;;;;10.23;5.22;;;-2.90;99.90;;;;;;5087491;28;20127;-72
2024/01/09 01:49:11;;;;;;;15.60;5.88;;;-3.00;99.90;;;;;;5074212;28;20074;-73
2024/01/09 01:51:37;;;;;;;14.23;5.55;;;-3.00;99.90;;;;;;5072889;28;20033;-74
2024/01/09 01:54:02;;;;;;;12.18;5.35;;;-3.00;99.90;;;;;;5070262;28;20405;-73
2024/01/09 01:56:28;;;;;;;14.48;6.15;;;-3.00;99.90;;;;;;5070237;28;20032;-73
2024/01/09 01:58:54;;;;;;;14.45;5.43;;;-3.10;99.90;;;;;;5071335;28;20016;-73
2024/01/09 02:01:19;;;;;;;15.63;5.95;;;-3.10;99.90;;;;;;5071123;28;20020;-73
2024/01/09 02:03:46;;;;;;;12.02;5.63;;;-3.10;99.90;;;;;;5070619;28;20400;-74
2024/01/09 02:06:12;;;;;;;14.23;5.45;;;-3.10;99.90;;;;;;5070893;28;20028;-75
2024/01/09 02:08:39;;;;;;;12.60;5.63;;;-3.10;99.90;;;;;;5070563;28;20066;-73
2024/01/09 02:11:05;;;;;;;16.52;5.60;;;-3.10;99.90;;;;;;5070476;28;20035;-73
2024/01/09 02:13:31;;;;;;;12.10;5.38;;;-3.10;99.90;;;;;;5070101;28;20123;-72
2024/01/09 02:15:57;;;;;;;11.30;5.75;;;-3.10;99.90;;;;;;5071187;28;20049;-72
2024/01/09 02:18:23;;;;;;;14.10;5.78;;;-3.20;99.90;;;;;;5070773;28;20036;-73
2024/01/09 02:20:48;;;;;;;15.48;5.97;;;-3.20;99.90;;;;;;5071898;28;20061;-73
2024/01/09 02:23:14;;;;;;;13.70;5.53;;;-3.30;99.90;;;;;;5071118;28;20081;-74
2024/01/09 02:25:40;;;;;;;14.32;5.90;;;-3.30;99.90;;;;;;5070289;28;20063;-75
2024/01/09 02:28:18;;;;;;;13.85;5.85;;;-3.30;99.90;;;;;;5070710;28;20028;-74
2024/01/09 02:30:45;;;;;;;16.83;6.47;;;-3.30;99.90;;;;;;5070560;28;20561;-73
2024/01/09 02:33:11;;;;;;;12.07;5.80;;;-3.30;99.90;;;;;;5069972;28;20020;-74
2024/01/09 02:35:37;;;;;;;13.13;6.18;;;-3.30;99.90;;;;;;5070068;28;20044;-74
2024/01/09 02:38:03;;;;;;;11.50;6.13;;;-3.30;99.90;;;;;;5070440;28;20035;-73
2024/01/09 02:40:28;;;;;;;11.38;5.68;;;-3.30;99.90;;;;;;5070635;28;20489;-73
2024/01/09 02:42:54;;;;;;;12.77;6.10;;;-3.30;99.90;;;;;;5070501;28;20025;-73
2024/01/09 02:45:20;;;;;;;10.70;5.82;;;-3.30;99.90;;;;;;5070246;28;20032;-74
2024/01/09 02:47:45;;;;;;;8.60;5.10;;;-3.40;99.90;;;;;;5073670;28;20028;-72
2024/01/09 02:50:11;;;;;;;14.13;6.93;;;-3.40;99.90;;;;;;5071366;28;20103;-75
2024/01/09 02:52:37;;;;;;;13.88;5.88;;;-3.40;99.90;;;;;;5070848;28;20443;-74
2024/01/09 02:55:03;;;;;;;13.70;5.97;;;-3.50;99.90;;;;;;5070707;28;20052;-74
2024/01/09 02:57:28;;;;;;;12.45;6.05;;;-3.50;99.90;;;;;;5071308;28;20033;-74
2024/01/09 02:59:54;;;;;;;14.70;6.45;;;-3.50;99.90;;;;;;5071326;28;20028;-74
2024/01/09 03:02:19;;;;;;;15.48;6.78;;;-3.60;99.90;;;;;;5071267;28;20488;-73
2024/01/09 03:04:45;;;;;;;14.82;6.97;;;-3.60;99.90;;;;;;5070744;28;20072;-73
2024/01/09 03:07:11;;;;;;;13.88;7.10;;;-3.60;99.90;;;;;;5071457;28;20491;-74
2024/01/09 03:09:37;;;;;;;15.02;7.00;;;-3.60;99.90;;;;;;5071255;28;20021;-72
2024/01/09 03:12:03;;;;;;;14.32;6.65;;;-3.60;99.90;;;;;;5071270;28;20491;-73
2024/01/09 03:14:29;;;;;;;10.93;6.30;;;-3.60;99.90;;;;;;5071205;28;20039;-73
2024/01/09 03:16:55;;;;;;;14.05;7.22;;;-3.70;99.90;;;;;;5073508;28;20036;-73
2024/01/09 03:19:20;;;;;;;16.95;7.05;;;-3.60;99.90;;;;;;5072190;28;20575;-73
2024/01/09 03:21:47;;;;;;;11.95;6.88;;;-3.60;99.90;;;;;;5072950;28;20020;-73
2024/01/09 03:24:13;;;;;;;12.77;6.70;;;-3.70;99.90;;;;;;5074189;28;20054;-74
2024/01/09 03:26:38;;;;;;;15.73;7.25;;;-3.80;99.90;;;;;;5074560;28;20028;-73
2024/01/09 03:29:04;;;;;;;13.18;6.63;;;-3.80;99.90;;;;;;5076500;28;20376;-75
2024/01/09 03:31:30;;;;;;;14.80;7.88;;;-3.80;99.90;;;;;;5079246;28;20032;-72
2024/01/09 03:33:56;;;;;;;14.02;7.07;;;-3.80;99.90;;;;;;5080359;28;20068;-72
2024/01/09 03:36:23;;;;;;;14.02;7.30;;;-3.80;99.90;;;;;;5077586;28;20028;-72
2024/01/09 03:38:50;;;;;;;17.63;7.35;;;-3.80;99.90;;;;;;5074810;28;20109;-72
2024/01/09 03:41:16;;;;;;;15.82;7.95;;;-3.80;99.90;;;;;;5085404;28;20493;-71
2024/01/09 03:43:42;;;;;;;20.10;8.15;;;-3.80;99.90;;;;;;5093934;28;20066;-72
2024/01/09 03:46:07;;;;;;;15.63;8.40;;;-3.80;99.90;;;;;;5094239;28;20080;-72
2024/01/09 03:48:33;;;;;;;20.13;8.05;;;-3.80;99.90;;;;;;5079816;28;20093;-71
2024/01/09 03:50:58;;;;;;;14.23;7.40;;;-3.80;99.90;;;;;;5074054;28;20021;-72
2024/01/09 03:53:24;;;;;;;15.57;8.48;;;-3.80;99.90;;;;;;5073495;28;20040;-72
2024/01/09 03:55:49;;;;;;;16.10;8.38;;;-3.80;99.90;;;;;;5073916;28;20029;-72
2024/01/09 03:58:15;;;;;;;12.90;7.85;;;-3.80;99.90;;;;;;5093833;28;20078;-72
2024/01/09 04:00:41;;;;;;;17.17;9.07;;;-3.80;99.90;;;;;;5079610;28;20054;-72
2024/01/09 04:03:06;;;;;;;24.58;12.18;;;-3.90;99.90;;;;;;5073150;28;20021;-71
2024/01/09 04:05:32;;;;;;;28.75;14.18;;;-3.80;99.90;;;;;;5073726;28;20021;-71
2024/01/09 04:07:58;;;;;;;24.45;12.10;;;-3.80;99.90;;;;;;5074086;28;20028;-72
2024/01/09 04:10:24;;;;;;;17.23;9.43;;;-3.80;99.90;;;;;;5094112;28;20035;-74
2024/01/09 04:12:50;;;;;;;19.35;9.80;;;-3.80;99.90;;;;;;5094600;28;20027;-72
2024/01/09 04:15:15;;;;;;;18.50;9.25;;;-3.90;99.10;;;;;;5093375;28;20036;-72
2024/01/09 04:17:41;;;;;;;18.13;9.02;;;-3.90;99.00;;;;;;5092980;28;20539;-72
2024/01/09 04:20:11;;;;;;;22.38;11.63;;;-3.90;98.70;;;;;;5094567;28;20032;-71
2024/01/09 04:22:36;;;;;;;47.55;22.70;;;-3.90;98.90;;;;;;5096037;28;20024;-72
2024/01/09 04:25:02;;;;;;;42.42;18.85;;;-3.90;99.10;;;;;;5093632;28;20035;-71
2024/01/09 04:27:27;;;;;;;26.73;12.20;;;-3.80;99.10;;;;;;5093948;28;20028;-71
2024/01/09 04:29:53;;;;;;;18.98;9.82;;;-3.80;99.10;;;;;;5094133;28;20077;-71
2024/01/09 04:32:19;;;;;;;21.38;10.10;;;-3.90;98.10;;;;;;5093826;28;20024;-71
2024/01/09 04:34:44;;;;;;;24.63;11.70;;;-3.80;97.20;;;;;;5074097;28;20460;-72
2024/01/09 04:37:10;;;;;;;21.65;10.07;;;-3.90;98.10;;;;;;5074111;28;20388;-73
2024/01/09 04:39:35;;;;;;;43.58;15.48;;;-3.90;97.90;;;;;;5072833;28;20056;-72
2024/01/09 04:42:01;;;;;;;30.85;13.25;;;-4.20;96.60;;;;;;5072667;28;20046;-71
2024/01/09 04:44:27;;;;;;;27.60;10.93;;;-4.00;97.10;;;;;;5073656;28;20028;-70
2024/01/09 04:46:52;;;;;;;28.17;12.15;;;-3.80;97.90;;;;;;5074019;28;20024;-71
2024/01/09 04:49:18;;;;;;;24.52;11.35;;;-4.00;98.00;;;;;;5074069;28;20384;-72
2024/01/09 04:51:44;;;;;;;23.23;12.32;;;-3.90;98.30;;;;;;5073787;28;20025;-72
2024/01/09 04:54:09;;;;;;;23.45;11.40;;;-3.90;98.20;;;;;;5073712;28;20520;-72
2024/01/09 04:56:35;;;;;;;25.75;12.15;;;-3.90;97.40;;;;;;5073484;28;20323;-71
2024/01/09 04:59:00;;;;;;;23.88;12.00;;;-3.90;97.90;;;;;;5073680;28;20021;-72
2024/01/09 05:01:26;;;;;;;25.38;12.80;;;-3.90;95.90;;;;;;5077025;28;20028;-72
2024/01/09 05:03:53;;;;;;;26.80;13.02;;;-3.90;96.80;;;;;;5073842;28;20028;-72
2024/01/09 05:06:19;;;;;;;26.40;10.98;;;-3.90;96.60;;;;;;5072772;28;20024;-73
2024/01/09 05:08:46;;;;;;;25.38;11.63;;;-3.90;95.60;;;;;;5073149;28;20021;-73
2024/01/09 05:11:11;;;;;;;18.58;10.75;;;-3.90;95.20;;;;;;5074053;28;20154;-71
2024/01/09 05:13:37;;;;;;;22.35;10.68;;;-3.90;94.70;;;;;;5080405;28;20044;-72
2024/01/09 05:16:04;;;;;;;22.50;10.82;;;-3.90;93.70;;;;;;5077133;28;20372;-72
2024/01/09 05:18:30;;;;;;;19.67;10.13;;;-3.90;93.50;;;;;;5076870;28;20020;-74
2024/01/09 05:20:56;;;;;;;22.27;11.32;;;-3.90;93.30;;;;;;5082452;28;20021;-73
2024/01/09 05:23:22;;;;;;;25.42;12.05;;;-3.90;93.30;;;;;;5078190;28;20094;-72
2024/01/09 05:25:47;;;;;;;20.45;11.60;;;-4.00;92.70;;;;;;5072307;28;20068;-73
2024/01/09 05:28:13;;;;;;;29.60;14.13;;;-3.90;93.80;;;;;;5072539;28;20066;-70
2024/01/09 05:30:38;;;;;;;25.83;13.13;;;-4.00;93.30;;;;;;5073214;28;20024;-74
2024/01/09 05:33:05;;;;;;;26.23;12.05;;;-3.90;94.00;;;;;;5072512;28;20029;-73
2024/01/09 05:35:30;;;;;;;27.38;14.95;;;-4.00;94.20;;;;;;5071955;28;20028;-71
2024/01/09 05:37:56;;;;;;;34.55;16.55;;;-3.90;94.80;;;;;;5072237;28;20077;-73
2024/01/09 05:40:22;;;;;;;35.20;15.60;;;-4.00;94.90;;;;;;5070702;28;20387;-74
2024/01/09 05:42:47;;;;;;;28.75;14.55;;;-4.00;95.90;;;;;;5072120;28;20033;-72
2024/01/09 05:45:14;;;;;;;29.13;14.50;;;-4.10;96.00;;;;;;5071165;28;20094;-72
2024/01/09 05:47:40;;;;;;;24.88;12.43;;;-4.10;96.20;;;;;;5072253;28;20095;-74
2024/01/09 05:50:08;;;;;;;24.77;13.05;;;-4.10;96.60;;;;;;5072763;28;20075;-73
2024/01/09 05:52:37;;;;;;;28.50;14.18;;;-4.10;97.60;;;;;;5073776;28;20021;-73
2024/01/09 05:55:06;;;;;;;27.25;12.82;;;-4.10;98.20;;;;;;5072898;28;20043;-73
2024/01/09 05:57:32;;;;;;;22.65;12.85;;;-4.10;98.60;;;;;;5073025;28;20032;-74
2024/01/09 05:59:57;;;;;;;24.40;11.95;;;-4.00;98.50;;;;;;5072831;28;20401;-72
2024/01/09 06:02:24;;;;;;;27.83;13.57;;;-4.10;97.60;;;;;;5072132;28;20029;-74
2024/01/09 06:04:50;;;;;;;30.40;14.73;;;-4.10;97.80;;;;;;5070267;28;20028;-70
2024/01/09 06:07:17;;;;;;;30.73;14.02;;;-4.00;97.80;;;;;;5071337;28;20044;-72
2024/01/09 06:09:43;;;;;;;30.92;13.50;;;-4.00;96.20;;;;;;5071200;28;20040;-73
2024/01/09 06:12:08;;;;;;;31.25;14.75;;;-4.10;96.10;;;;;;5069525;28;20154;-71
2024/01/09 06:14:34;;;;;;;29.00;13.45;;;-4.10;96.20;;;;;;5070381;28;20177;-72
2024/01/09 06:17:00;;;;;;;25.02;12.85;;;-4.10;97.10;;;;;;5073815;28;20024;-72
2024/01/09 06:19:25;;;;;;;30.50;13.32;;;-4.10;97.50;;;;;;5070481;28;20047;-72
2024/01/09 06:21:51;;;;;;;26.50;12.35;;;-4.10;97.10;;;;;;5071085;28;20027;-75
2024/01/09 06:24:17;;;;;;;26.85;12.10;;;-4.10;96.60;;;;;;5070958;28;20105;-71
2024/01/09 06:26:43;;;;;;;38.53;20.30;;;-4.10;97.40;;;;;;5079456;28;20024;-74
2024/01/09 06:29:08;;;;;;;41.97;17.55;;;-4.00;97.90;;;;;;5089330;28;20124;-72
2024/01/09 06:31:34;;;;;;;31.13;15.02;;;-4.10;96.10;;;;;;5092960;28;20043;-73
2024/01/09 06:33:59;;;;;;;28.42;13.57;;;-4.10;95.10;;;;;;5094311;28;20028;-70
2024/01/09 06:36:25;;;;;;;27.13;14.07;;;-4.10;94.90;;;;;;5096058;28;20072;-71
2024/01/09 06:38:50;;;;;;;33.78;15.38;;;-4.10;94.90;;;;;;5093995;28;20054;-71
2024/01/09 06:41:16;;;;;;;26.98;13.43;;;-4.10;95.10;;;;;;5090778;28;20032;-73
2024/01/09 06:43:42;;;;;;;28.48;13.95;;;-4.00;94.20;;;;;;5078298;28;20354;-72
2024/01/09 06:46:08;;;;;;;35.00;16.30;;;-4.00;92.80;;;;;;5070893;28;20119;-72
2024/01/09 06:48:34;;;;;;;27.92;13.77;;;-4.10;93.80;;;;;;5070785;28;20028;-74
2024/01/09 06:50:59;;;;;;;31.63;14.55;;;-4.10;92.90;;;;;;5070702;28;20028;-73
2024/01/09 06:53:25;;;;;;;26.73;13.35;;;-4.10;92.20;;;;;;5069332;28;20097;-72
2024/01/09 06:55:51;;;;;;;25.90;13.55;;;-4.10;92.80;;;;;;5071177;28;20024;-73
2024/01/09 06:58:16;;;;;;;30.25;14.40;;;-4.10;92.70;;;;;;5075563;28;20039;-72
2024/01/09 07:00:43;;;;;;;26.80;14.63;;;-4.10;92.60;;;;;;5074938;28;20413;-73
2024/01/09 07:03:09;;;;;;;31.38;16.48;;;-4.10;92.20;;;;;;5072537;28;20024;-71
2024/01/09 07:05:35;;;;;;;37.65;19.52;;;-4.10;92.10;;;;;;5084712;28;20070;-72
2024/01/09 07:08:00;;;;;;;38.72;19.08;;;-4.10;92.40;;;;;;5086448;28;20484;-72
2024/01/09 07:10:26;;;;;;;31.67;16.63;;;-4.10;91.50;;;;;;5077760;28;20464;-71
2024/01/09 07:12:51;;;;;;;35.05;16.90;;;-4.10;90.00;;;;;;5077307;28;20019;-71
2024/01/09 07:15:17;;;;;;;37.95;16.00;;;-4.10;90.20;;;;;;5074864;28;20086;-73
2024/01/09 07:17:44;;;;;;;32.85;15.75;;;-4.00;91.10;;;;;;5078355;28;20421;-73
2024/01/09 07:20:10;;;;;;;28.40;14.93;;;-4.10;90.70;;;;;;5076339;28;20020;-73
2024/01/09 07:22:36;;;;;;;38.42;18.02;;;-4.10;90.60;;;;;;5073416;28;20096;-75
2024/01/09 07:25:03;;;;;;;31.92;16.80;;;-4.10;90.50;;;;;;5074299;28;20075;-72
2024/01/09 07:27:28;;;;;;;37.13;16.88;;;-4.10;91.80;;;;;;5072957;28;20398;-72
2024/01/09 07:29:54;;;;;;;28.10;14.32;;;-4.00;91.80;;;;;;5074592;28;20025;-73
2024/01/09 07:32:20;;;;;;;31.20;15.48;;;-3.90;99.20;;;;;;5074693;28;20025;-72
2024/01/09 07:34:47;;;;;;;31.63;15.93;;;-3.50;99.90;;;;;;5074229;28;20025;-71
2024/01/09 07:37:13;;;;;;;34.78;17.45;;;-3.20;99.90;;;;;;5074831;28;20376;-74
2024/01/09 07:39:39;;;;;;;38.58;18.00;;;-2.80;99.90;;;;;;5075405;28;20082;-72
2024/01/09 07:42:05;;;;;;;54.15;23.02;;;-2.50;99.90;;;;;;5081605;28;20454;-71
2024/01/09 07:44:31;;;;;;;61.17;26.80;;;-2.30;95.30;;;;;;5078057;28;20024;-72
2024/01/09 07:46:56;;;;;;;50.97;22.08;;;-2.10;80.00;;;;;;5088777;28;20387;-76
2024/01/09 07:49:22;;;;;;;55.63;21.08;;;-2.30;50.80;;;;;;5098057;28;20020;-74
2024/01/09 07:51:48;;;;;;;37.88;17.20;;;-2.40;43.50;;;;;;5098062;28;20024;-71
2024/01/09 07:54:13;;;;;;;32.97;15.32;;;-2.70;30.40;;;;;;5076036;28;20372;-73
2024/01/09 07:56:39;;;;;;;29.77;14.63;;;-2.70;28.80;;;;;;5073306;28;20036;-71
2024/01/09 07:59:04;;;;;;;41.42;20.02;;;-2.80;29.40;;;;;;5074059;28;20020;-72
2024/01/09 08:01:31;;;;;;;53.65;24.42;;;-2.90;28.90;;;;;;5073263;28;20020;-73
2024/01/09 08:03:57;;;;;;;48.25;19.63;;;-3.00;28.00;;;;;;5072740;28;20032;-72
2024/01/09 08:06:23;;;;;;;30.73;16.42;;;-3.10;36.20;;;;;;5078819;28;20157;-72
2024/01/09 08:08:48;;;;;;;29.77;14.65;;;-3.10;40.60;;;;;;5093161;28;20069;-73
2024/01/09 08:11:14;;;;;;;33.17;14.95;;;-3.20;44.90;;;;;;5093729;28;20397;-73
2024/01/09 08:13:40;;;;;;;44.03;18.95;;;-3.20;48.00;;;;;;5093348;28;20081;-73
2024/01/09 08:16:08;;;;;;;42.97;19.63;;;-3.20;50.20;;;;;;5093794;28;20028;-71
2024/01/09 08:18:34;;;;;;;43.40;17.80;;;-3.30;48.50;;;;;;5094235;28;20402;-72
2024/01/09 08:20:59;;;;;;;36.30;16.23;;;-3.30;51.00;;;;;;5094030;28;20395;-70
2024/01/09 08:23:25;;;;;;;31.52;15.82;;;-3.40;50.30;;;;;;5093202;28;20032;-71
2024/01/09 08:25:51;;;;;;;28.17;14.65;;;-3.40;56.70;;;;;;5094251;28;20032;-70
2024/01/09 08:28:17;;;;;;;30.85;16.35;;;-3.40;61.40;;;;;;5094124;28;20627;-71
2024/01/09 08:30:43;;;;;;;34.33;17.90;;;-3.30;64.00;;;;;;5095080;28;20441;-75
2024/01/09 08:33:08;;;;;;;36.13;16.92;;;-3.30;64.90;;;;;;5094290;28;20018;-73
2024/01/09 08:35:34;;;;;;;29.58;16.00;;;-3.20;65.60;;;;;;5093995;28;20032;-75
2024/01/09 08:38:00;;;;;;;36.15;17.75;;;-3.20;67.30;;;;;;5096560;28;20080;-75
2024/01/09 08:40:25;;;;;;;33.90;18.83;;;-3.10;66.80;;;;;;5096304;28;20078;-75
2024/01/09 08:42:51;;;;;;;41.05;18.95;;;-3.10;67.10;;;;;;5099795;28;20454;-75
2024/01/09 08:45:17;;;;;;;33.28;16.25;;;-3.10;68.90;;;;;;5098494;28;20035;-75
2024/01/09 08:47:43;;;;;;;30.20;14.50;;;-3.00;74.50;;;;;;5097333;28;20107;-74
2024/01/09 08:50:08;;;;;;;32.75;17.13;;;-3.00;74.20;;;;;;5095430;28;20107;-76
2024/01/09 08:52:37;;;;;;;40.35;19.95;;;-2.90;75.50;;;;;;5094221;28;20048;-74
2024/01/09 08:55:04;;;;;;;46.05;20.70;;;-2.80;77.20;;;;;;5096485;28;20024;-73
2024/01/09 08:57:30;;;;;;;47.05;20.08;;;-2.80;74.00;;;;;;5094918;28;20034;-75
2024/01/09 08:59:58;;;;;;;46.53;19.17;;;-2.80;78.00;;;;;;5093223;28;20104;-72
2024/01/09 09:02:24;;;;;;;42.15;17.52;;;-2.70;79.60;;;;;;5094579;28;20107;-75
2024/01/09 09:04:50;;;;;;;35.58;18.30;;;-2.70;82.10;;;;;;5093918;28;20099;-72
2024/01/09 09:07:18;;;;;;;42.17;19.58;;;-2.60;81.90;;;;;;5093602;28;20393;-73
2024/01/09 09:09:44;;;;;;;40.38;18.45;;;-2.50;84.00;;;;;;5094270;28;20012;-74
2024/01/09 09:12:10;;;;;;;38.88;18.67;;;-2.20;91.60;;;;;;5093700;28;20016;-74
2024/01/09 09:14:35;;;;;;;40.45;17.45;;;-1.70;90.50;;;;;;5092915;28;20012;-75
2024/01/09 09:17:01;;;;;;;36.50;16.02;;;-0.80;95.20;;;;;;5093679;28;20044;-75
2024/01/09 09:19:27;;;;;;;33.63;16.60;;;0.60;82.10;;;;;;5093891;28;20391;-74
2024/01/09 09:21:53;;;;;;;24.27;14.60;;;1.70;13.40;;;;;;5093752;28;20024;-77
2024/01/09 09:24:19;;;;;;;30.95;14.52;;;2.90;1.00;;;;;;5093826;28;20039;-77
2024/01/09 09:26:44;;;;;;;30.98;14.68;;;3.80;1.00;;;;;;5093960;28;20024;-74
2024/01/09 09:29:10;;;;;;;26.13;13.13;;;4.10;1.00;;;;;;5093000;28;20062;-71
2024/01/09 09:31:36;;;;;;;27.75;14.68;;;4.40;1.00;;;;;;5092868;28;20031;-72
2024/01/09 09:34:01;;;;;;;19.73;11.60;;;4.70;1.00;;;;;;5092556;28;20016;-73
2024/01/09 09:36:27;;;;;;;19.92;11.48;;;5.00;1.00;;;;;;5092584;28;20558;-72
2024/01/09 09:38:53;;;;;;;20.15;11.82;;;5.00;1.00;;;;;;5093789;28;20049;-75
2024/01/09 09:41:20;;;;;;;21.67;12.18;;;4.10;1.00;;;;;;5094327;28;20138;-73
2024/01/09 09:43:55;;;;;;;28.25;13.02;;;3.30;99.90;;;;;;5093296;28;20438;-75
2024/01/09 09:46:26;;;;;;;26.67;13.20;;;2.70;99.90;;;;;;5095430;28;20028;-74
2024/01/09 09:48:53;;;;;;;26.10;12.63;;;;;;;;;;5094154;28;20020;-72
2024/01/09 09:51:20;;;;;;;24.77;13.10;;;;;;;;;;5094047;28;20020;-72
2024/01/09 09:53:46;;;;;;;23.27;13.00;;;1.40;1.00;;;;;;5092830;28;20044;-72
2024/01/09 09:56:13;;;;;;;24.60;13.20;;;;;;;;;;5092657;28;20475;-73
2024/01/09 09:58:40;;;;;;;25.00;12.63;;;;;;;;;;5092966;28;20107;-73
2024/01/09 10:01:08;;;;;;;19.95;11.02;;;;;;;;;;5096256;28;20483;-75
2024/01/09 10:03:35;;;;;;;23.25;12.45;;;;;;;;;;5098010;28;20032;-77
2024/01/09 10:06:04;;;;;;;20.42;11.30;;;;;;;;;;5101291;28;20027;-75
2024/01/09 10:08:33;;;;;;;37.58;19.35;;;;;;;;;;5089157;28;20020;-72
2024/01/09 10:10:59;;;;;;;23.13;13.00;;;;;;;;;;5071873;28;20016;-71
2024/01/09 10:13:25;;;;;;;22.50;11.77;;;;;;;;;;5073066;28;20076;-71
2024/01/09 10:16:01;;;;;;;21.00;11.57;;;;;;;;;;5092197;28;20483;-71
2024/01/09 10:18:34;;;;;;;20.45;10.77;;;;;;;;;;5099575;28;20024;-74
2024/01/09 10:21:01;;;;;;;19.00;10.30;;;;;;;;;;5100596;28;20047;-75
2024/01/09 10:23:27;;;;;;;20.45;11.32;;;;;;;;;;5100755;28;20040;-72
2024/01/09 10:25:54;;;;;;;21.33;10.52;;;;;;;;;;5101032;28;20024;-73
2024/01/09 10:28:20;;;;;;;20.40;10.48;;;;;;;;;;5096874;28;20032;-72
2024/01/09 10:30:46;;;;;;;17.85;9.75;;;;;;;;;;5057175;28;20033;-72
2024/01/09 10:33:12;;;;;;;18.35;10.43;;;;;;;;;;5055486;28;20399;-74
2024/01/09 10:35:38;;;;;;;21.08;10.18;;;;;;;;;;5055177;28;20025;-73
2024/01/09 10:38:04;;;;;;;21.38;10.45;;;;;;;;;;5056261;28;20025;-74
2024/01/09 10:40:30;;;;;;;19.27;10.20;;;;;;;;;;5052915;28;20029;-75
2024/01/09 10:42:56;;;;;;;21.17;10.77;;;;;;;;;;5051724;28;20029;-71
2024/01/09 10:45:23;;;;;;;16.90;10.43;;;;;;;;;;5051085;28;20025;-72
2024/01/09 10:47:53;;;;;;;15.93;9.48;;;;;;;;;;5053357;28;20373;-72
2024/01/09 10:50:20;;;;;;;20.70;9.45;;;;;;;;;;5053060;28;20025;-72
2024/01/09 10:52:47;;;;;;;18.85;9.60;;;;;;;;;;5051680;28;20380;-73
2024/01/09 10:55:13;;;;;;;17.13;9.82;;;;;;;;;;5053358;28;20025;-73
2024/01/09 10:57:39;;;;;;;18.65;10.40;;;;;;;;;;5053710;28;20060;-73
2024/01/09 11:00:08;;;;;;;20.10;9.68;;;;;;;;;;5052526;28;20417;-72
2024/01/09 11:02:36;;;;;;;18.75;10.43;;;;;;;;;;5034976;28;20116;-74
2024/01/09 11:05:03;;;;;;;19.20;9.85;;;;;;;;;;5052579;28;20027;-74
2024/01/09 11:07:30;;;;;;;13.93;8.48;;;;;;;;;;5052507;28;20018;-73
2024/01/09 11:09:57;;;;;;;17.05;8.40;;;;;;;;;;5052701;28;20488;-73
2024/01/09 11:12:30;;;;;;;17.20;9.77;;;;;;;;;;5052340;28;20091;-72
2024/01/09 11:14:59;;;;;;;19.25;9.18;;;;;;;;;;5050181;28;20025;-73
2024/01/09 11:17:26;;;;;;;16.95;9.13;;;;;;;;;;5051730;28;20029;-74
2024/01/09 11:19:52;;;;;;;20.17;9.88;;;;;;;;;;5050895;28;20100;-73
2024/01/09 11:22:19;;;;;;;18.50;8.65;;;;;;;;;;5051630;28;20032;-73
2024/01/09 11:24:48;;;;;;;14.70;8.40;;;;;;;;;;5050781;28;20134;-73
2024/01/09 11:27:15;;;;;;;18.15;7.88;;;;;;;;;;5053278;28;20021;-73
2024/01/09 11:29:50;;;;;;;12.15;6.63;;;;;;;;;;5054846;28;20036;-74
2024/01/09 11:32:17;;;;;;;18.23;6.80;;;;;;;;;;5068942;28;20009;-73
2024/01/09 11:34:46;;;;;;;19.33;8.10;;;;;;;;;;5067120;28;20472;-73
2024/01/09 11:37:19;;;;;;;17.75;7.90;;;;;;;;;;5073184;28;20077;-72
2024/01/09 11:39:45;;;;;;;15.48;7.57;;;;;;;;;;5067823;28;20079;-73
2024/01/09 11:42:11;;;;;;;20.30;8.77;;;;;;;;;;5066280;28;20017;-74
2024/01/09 11:44:37;;;;;;;14.48;7.80;;;;;;;;;;5070062;28;20016;-73
2024/01/09 11:47:03;;;;;;;18.25;7.85;;;;;;;;;;5072986;28;20027;-72
2024/01/09 11:49:29;;;;;;;15.13;8.48;;;;;;;;;;5071947;28;20374;-72
2024/01/09 11:51:55;;;;;;;12.85;7.80;;;;;;;;;;5073115;28;20017;-73
2024/01/09 11:54:22;;;;;;;17.13;8.18;;;;;;;;;;5070554;28;20021;-71
2024/01/09 11:56:49;;;;;;;17.40;9.40;;;;;;;;;;5069795;28;20024;-72
2024/01/09 11:59:18;;;;;;;15.90;8.25;;;;;;;;;;5071814;28;20484;-72
2024/01/09 12:01:47;;;;;;;14.55;7.45;;;3.00;55.20;;;;;;5072392;28;20024;-74
2024/01/09 12:04:14;;;;;;;14.50;7.13;;;4.10;1.00;;;;;;5070487;28;20037;-72
2024/01/09 12:06:39;;;;;;;15.88;7.40;;;5.10;1.00;;;;;;5070506;28;20336;-73
2024/01/09 12:09:05;;;;;;;12.63;6.63;;;6.30;1.00;;;;;;5071869;28;20012;-72
2024/01/09 12:11:31;;;;;;;19.35;6.78;;;7.20;1.00;;;;;;5071971;28;20635;-72
2024/01/09 12:14:03;;;;;;;15.00;7.38;;;7.80;1.00;;;;;;5073248;28;20050;-73
2024/01/09 12:16:30;;;;;;;11.95;6.38;;;8.60;1.00;;;;;;5084387;28;20033;-72
2024/01/09 12:18:57;;;;;;;14.77;7.00;;;9.00;99.90;;;;;;5079409;28;20027;-72
2024/01/09 12:21:25;;;;;;;16.65;8.13;;;9.20;92.90;;;;;;5095306;28;20030;-73
2024/01/09 12:23:52;;;;;;;38.13;19.58;;;9.60;1.00;;;;;;5092049;28;20050;-72
2024/01/09 12:26:20;;;;;;;13.40;7.53;;;10.20;99.90;;;;;;5073764;28;20545;-73
2024/01/09 12:28:47;;;;;;;13.50;8.88;;;10.60;1.00;;;;;;5070557;28;20369;-73
2024/01/09 12:31:18;;;;;;;15.40;9.40;;;11.00;1.00;;;;;;5070857;28;20028;-72
2024/01/09 12:33:45;;;;;;;14.57;8.65;;;11.50;99.90;;;;;;5068684;28;20456;-72
2024/01/09 12:36:11;;;;;;;14.52;8.55;;;11.80;99.90;;;;;;5070481;28;20491;-71
2024/01/09 12:38:37;;;;;;;18.50;9.15;;;12.20;99.90;;;;;;5073218;28;20078;-71
2024/01/09 12:41:07;;;;;;;17.95;10.05;;;12.10;95.80;;;;;;5080868;28;20025;-74
2024/01/09 12:43:33;;;;;;;18.08;11.00;;;12.00;19.90;;;;;;5072880;28;20113;-73
2024/01/09 12:46:04;;;;;;;18.20;10.48;;;11.50;36.90;;;;;;5071979;28;20021;-71